This is the latest recevied weather packets stored in our database for station/object SP2WPY-13. If no packets are shown the sender has not sent any weather packets the latest 10 day(s).
| Time | Temp. | Humidity | Pressure | Rain* | Wind** | Luminosity | Snow |
|---|---|---|---|---|---|---|---|
| 1777866961 | 15.56° C | 50% | 1010.7 hPa | - | - | - | - |
| 1777866687 | 15.56° C | 50% | 1010.7 hPa | - | - | - | - |
| 1777866367 | 16.11° C | 49% | 1010.7 hPa | - | - | - | - |
| 1777866094 | 15.56° C | 49% | 1010.8 hPa | - | - | - | - |
| 1777865774 | 15.56° C | 49% | 1010.8 hPa | - | - | - | - |
| 1777865500 | 15.56° C | 49% | 1010.7 hPa | - | - | - | - |
| 1777865181 | 15.56° C | 49% | 1010.7 hPa | - | - | - | - |
| 1777864906 | 15.56° C | 49% | 1010.8 hPa | - | - | - | - |
| 1777864587 | 15.56° C | 49% | 1010.8 hPa | - | - | - | - |
| 1777864266 | 15.56° C | 49% | 1010.8 hPa | - | - | - | - |
| 1777863993 | 15.56° C | 50% | 1010.9 hPa | - | - | - | - |
| 1777863673 | 15.56° C | 49% | 1010.8 hPa | - | - | - | - |
| 1777863400 | 16.11° C | 49% | 1010.7 hPa | - | - | - | - |
| 1777863080 | 16.11° C | 49% | 1010.8 hPa | - | - | - | - |
| 1777862805 | 15.56° C | 49% | 1010.7 hPa | - | - | - | - |
| 1777862486 | 15.56° C | 50% | 1010.8 hPa | - | - | - | - |
| 1777862166 | 15.56° C | 51% | 1010.8 hPa | - | - | - | - |
| 1777861892 | 15.56° C | 51% | 1010.9 hPa | - | - | - | - |
| 1777861572 | 15° C | 52% | 1011 hPa | - | - | - | - |
| 1777861298 | 15.56° C | 51% | 1010.9 hPa | - | - | - | - |
| 1777860978 | 15.56° C | 50% | 1010.9 hPa | - | - | - | - |
| 1777860705 | 16.67° C | 44% | 1010.7 hPa | - | - | - | - |
| 1777860385 | 16.67° C | 44% | 1010.7 hPa | - | - | - | - |
| 1777860065 | 16.67° C | 44% | 1010.6 hPa | - | - | - | - |
| 1777859791 | 16.67° C | 45% | 1010.6 hPa | - | - | - | - |
* Rain since midnight (hover to see other rain measurements)
** Current wind speed in m/s (hover to see current wind gust speed)